sensor_id;sensor_type;location;lat;lon;timestamp;temperature;humidity
21306;DHT22;10812;51.838;5.838;2023-02-10T00:00:30;1.30;99.90
21306;DHT22;10812;51.838;5.838;2023-02-10T00:02:58;1.30;99.90
21306;DHT22;10812;51.838;5.838;2023-02-10T00:05:26;1.30;99.90
21306;DHT22;10812;51.838;5.838;2023-02-10T00:07:56;1.30;99.90
21306;DHT22;10812;51.838;5.838;2023-02-10T00:10:24;1.30;99.90
21306;DHT22;10812;51.838;5.838;2023-02-10T00:12:52;1.20;99.90
21306;DHT22;10812;51.838;5.838;2023-02-10T00:15:20;1.20;99.90
21306;DHT22;10812;51.838;5.838;2023-02-10T00:17:48;1.10;99.90
21306;DHT22;10812;51.838;5.838;2023-02-10T00:20:16;1.00;99.90
21306;DHT22;10812;51.838;5.838;2023-02-10T00:22:44;1.00;99.90
21306;DHT22;10812;51.838;5.838;2023-02-10T00:25:14;1.00;99.90
21306;DHT22;10812;51.838;5.838;2023-02-10T00:27:42;1.00;99.90
21306;DHT22;10812;51.838;5.838;2023-02-10T00:30:11;1.00;99.90
21306;DHT22;10812;51.838;5.838;2023-02-10T00:32:39;0.90;99.90
21306;DHT22;10812;51.838;5.838;2023-02-10T00:35:08;0.80;99.90
21306;DHT22;10812;51.838;5.838;2023-02-10T00:37:36;0.90;99.90
21306;DHT22;10812;51.838;5.838;2023-02-10T00:40:04;0.90;99.90
21306;DHT22;10812;51.838;5.838;2023-02-10T00:42:34;0.90;99.90
21306;DHT22;10812;51.838;5.838;2023-02-10T00:45:02;1.00;99.90
21306;DHT22;10812;51.838;5.838;2023-02-10T00:47:30;1.00;99.90
21306;DHT22;10812;51.838;5.838;2023-02-10T00:49:59;0.90;99.90
21306;DHT22;10812;51.838;5.838;2023-02-10T00:52:27;0.80;99.90
21306;DHT22;10812;51.838;5.838;2023-02-10T00:54:55;0.80;99.90
21306;DHT22;10812;51.838;5.838;2023-02-10T00:57:23;0.80;99.90
21306;DHT22;10812;51.838;5.838;2023-02-10T00:59:52;0.70;99.90
21306;DHT22;10812;51.838;5.838;2023-02-10T01:02:22;0.70;99.90
21306;DHT22;10812;51.838;5.838;2023-02-10T01:04:50;0.70;99.90
21306;DHT22;10812;51.838;5.838;2023-02-10T01:07:18;0.70;99.90
21306;DHT22;10812;51.838;5.838;2023-02-10T01:09:46;0.70;99.90
21306;DHT22;10812;51.838;5.838;2023-02-10T01:12:14;0.70;99.90
21306;DHT22;10812;51.838;5.838;2023-02-10T01:14:42;0.60;99.90
21306;DHT22;10812;51.838;5.838;2023-02-10T01:17:12;0.60;99.90
21306;DHT22;10812;51.838;5.838;2023-02-10T01:19:40;0.70;99.90
21306;DHT22;10812;51.838;5.838;2023-02-10T01:22:08;0.70;99.90
21306;DHT22;10812;51.838;5.838;2023-02-10T01:24:36;0.60;99.90
21306;DHT22;10812;51.838;5.838;2023-02-10T01:27:04;0.70;99.90
21306;DHT22;10812;51.838;5.838;2023-02-10T01:29:32;0.70;99.90
21306;DHT22;10812;51.838;5.838;2023-02-10T01:32:00;0.70;99.90
21306;DHT22;10812;51.838;5.838;2023-02-10T01:34:30;0.70;99.90
21306;DHT22;10812;51.838;5.838;2023-02-10T01:36:58;0.70;99.90
21306;DHT22;10812;51.838;5.838;2023-02-10T01:39:26;0.70;99.90
21306;DHT22;10812;51.838;5.838;2023-02-10T01:41:54;0.70;99.90
21306;DHT22;10812;51.838;5.838;2023-02-10T01:47:39;0.60;99.90
21306;DHT22;10812;51.838;5.838;2023-02-10T01:50:09;0.60;99.90
21306;DHT22;10812;51.838;5.838;2023-02-10T01:52:39;0.70;99.90
21306;DHT22;10812;51.838;5.838;2023-02-10T01:55:09;0.80;99.90
21306;DHT22;10812;51.838;5.838;2023-02-10T01:57:40;0.80;99.90
21306;DHT22;10812;51.838;5.838;2023-02-10T02:00:11;0.80;99.90
21306;DHT22;10812;51.838;5.838;2023-02-10T02:02:40;0.80;99.90
21306;DHT22;10812;51.838;5.838;2023-02-10T02:05:21;0.80;99.90
21306;DHT22;10812;51.838;5.838;2023-02-10T02:07:50;0.90;99.90
21306;DHT22;10812;51.838;5.838;2023-02-10T02:10:19;1.10;99.90
21306;DHT22;10812;51.838;5.838;2023-02-10T02:12:54;1.20;99.90
21306;DHT22;10812;51.838;5.838;2023-02-10T02:15:30;1.10;99.90
21306;DHT22;10812;51.838;5.838;2023-02-10T02:18:07;1.10;99.90
21306;DHT22;10812;51.838;5.838;2023-02-10T02:21:08;1.00;99.90
21306;DHT22;10812;51.838;5.838;2023-02-10T02:24:19;1.00;99.90
21306;DHT22;10812;51.838;5.838;2023-02-10T02:30:00;0.90;99.90
21306;DHT22;10812;51.838;5.838;2023-02-10T02:32:38;0.80;99.90
21306;DHT22;10812;51.838;5.838;2023-02-10T02:35:09;0.80;99.90
21306;DHT22;10812;51.838;5.838;2023-02-10T02:37:41;0.80;99.90
21306;DHT22;10812;51.838;5.838;2023-02-10T02:40:12;0.80;99.90
21306;DHT22;10812;51.838;5.838;2023-02-10T02:42:40;0.80;99.90
21306;DHT22;10812;51.838;5.838;2023-02-10T03:06:09;0.70;99.90
21306;DHT22;10812;51.838;5.838;2023-02-10T03:08:39;0.60;99.90
21306;DHT22;10812;51.838;5.838;2023-02-10T03:11:08;0.60;99.90
21306;DHT22;10812;51.838;5.838;2023-02-10T03:13:36;0.60;99.90
21306;DHT22;10812;51.838;5.838;2023-02-10T03:16:05;0.60;99.90
21306;DHT22;10812;51.838;5.838;2023-02-10T03:18:33;0.60;99.90
21306;DHT22;10812;51.838;5.838;2023-02-10T03:21:01;0.70;99.90
21306;DHT22;10812;51.838;5.838;2023-02-10T03:23:30;0.70;99.90
21306;DHT22;10812;51.838;5.838;2023-02-10T03:25:59;0.60;99.90
21306;DHT22;10812;51.838;5.838;2023-02-10T03:28:27;0.60;99.90
21306;DHT22;10812;51.838;5.838;2023-02-10T03:30:56;0.60;99.90
21306;DHT22;10812;51.838;5.838;2023-02-10T03:33:24;0.50;99.90
21306;DHT22;10812;51.838;5.838;2023-02-10T03:35:52;0.50;99.90
21306;DHT22;10812;51.838;5.838;2023-02-10T03:38:21;0.50;99.90
21306;DHT22;10812;51.838;5.838;2023-02-10T03:40:51;0.50;99.90
21306;DHT22;10812;51.838;5.838;2023-02-10T03:43:20;0.60;99.90
21306;DHT22;10812;51.838;5.838;2023-02-10T03:45:48;0.60;99.90
21306;DHT22;10812;51.838;5.838;2023-02-10T03:48:17;0.40;99.90
21306;DHT22;10812;51.838;5.838;2023-02-10T03:50:45;0.40;99.90
21306;DHT22;10812;51.838;5.838;2023-02-10T03:53:13;0.40;99.90
21306;DHT22;10812;51.838;5.838;2023-02-10T03:55:41;0.40;99.90
21306;DHT22;10812;51.838;5.838;2023-02-10T03:58:10;0.40;99.90
21306;DHT22;10812;51.838;5.838;2023-02-10T04:00:39;0.30;99.90
21306;DHT22;10812;51.838;5.838;2023-02-10T04:03:07;0.30;99.90
21306;DHT22;10812;51.838;5.838;2023-02-10T04:05:35;0.40;99.90
21306;DHT22;10812;51.838;5.838;2023-02-10T04:08:03;0.30;99.90
21306;DHT22;10812;51.838;5.838;2023-02-10T04:10:32;0.20;99.90
21306;DHT22;10812;51.838;5.838;2023-02-10T04:13:00;0.20;99.90
21306;DHT22;10812;51.838;5.838;2023-02-10T04:15:30;0.20;99.90
21306;DHT22;10812;51.838;5.838;2023-02-10T04:17:58;0.20;99.90
21306;DHT22;10812;51.838;5.838;2023-02-10T04:20:26;0.20;99.90
21306;DHT22;10812;51.838;5.838;2023-02-10T04:22:54;0.10;99.90
21306;DHT22;10812;51.838;5.838;2023-02-10T04:25:22;0.10;99.90
21306;DHT22;10812;51.838;5.838;2023-02-10T04:27:50;0.10;99.90
21306;DHT22;10812;51.838;5.838;2023-02-10T04:30:19;0.10;99.90
21306;DHT22;10812;51.838;5.838;2023-02-10T04:32:48;0.10;99.90
21306;DHT22;10812;51.838;5.838;2023-02-10T04:35:16;0.10;99.90
21306;DHT22;10812;51.838;5.838;2023-02-10T04:37:44;0.10;99.90
21306;DHT22;10812;51.838;5.838;2023-02-10T04:40:12;0.10;99.90
21306;DHT22;10812;51.838;5.838;2023-02-10T04:42:41;0.10;99.90
21306;DHT22;10812;51.838;5.838;2023-02-10T04:45:09;0.10;99.90
21306;DHT22;10812;51.838;5.838;2023-02-10T04:47:37;0.10;99.90
21306;DHT22;10812;51.838;5.838;2023-02-10T04:50:07;0.10;99.90
21306;DHT22;10812;51.838;5.838;2023-02-10T04:52:35;0.10;99.90
21306;DHT22;10812;51.838;5.838;2023-02-10T04:55:03;0.10;99.90
21306;DHT22;10812;51.838;5.838;2023-02-10T04:57:32;0.10;99.90
21306;DHT22;10812;51.838;5.838;2023-02-10T05:00:00;0.10;99.90
21306;DHT22;10812;51.838;5.838;2023-02-10T05:02:28;0.00;99.90
21306;DHT22;10812;51.838;5.838;2023-02-10T05:04:56;0.00;99.90
21306;DHT22;10812;51.838;5.838;2023-02-10T05:07:26;0.00;99.90
21306;DHT22;10812;51.838;5.838;2023-02-10T05:09:54;0.00;99.90
21306;DHT22;10812;51.838;5.838;2023-02-10T05:12:24;0.00;99.90
21306;DHT22;10812;51.838;5.838;2023-02-10T05:14:52;-0.10;99.90
21306;DHT22;10812;51.838;5.838;2023-02-10T05:17:21;-0.10;99.90
21306;DHT22;10812;51.838;5.838;2023-02-10T05:19:49;0.00;99.90
21306;DHT22;10812;51.838;5.838;2023-02-10T05:22:17;-0.10;99.90
21306;DHT22;10812;51.838;5.838;2023-02-10T05:24:46;-0.10;99.90
21306;DHT22;10812;51.838;5.838;2023-02-10T05:27:16;0.00;99.90
21306;DHT22;10812;51.838;5.838;2023-02-10T05:29:44;0.00;99.90
21306;DHT22;10812;51.838;5.838;2023-02-10T05:32:12;0.00;99.90
21306;DHT22;10812;51.838;5.838;2023-02-10T05:34:41;0.00;99.90
21306;DHT22;10812;51.838;5.838;2023-02-10T05:37:09;0.00;99.90
21306;DHT22;10812;51.838;5.838;2023-02-10T05:39:37;0.00;99.90
21306;DHT22;10812;51.838;5.838;2023-02-10T05:42:08;0.00;99.90
21306;DHT22;10812;51.838;5.838;2023-02-10T05:44:36;0.00;99.90
21306;DHT22;10812;51.838;5.838;2023-02-10T05:47:04;0.00;99.90
21306;DHT22;10812;51.838;5.838;2023-02-10T05:49:32;0.00;99.90
21306;DHT22;10812;51.838;5.838;2023-02-10T05:52:00;0.10;99.90
21306;DHT22;10812;51.838;5.838;2023-02-10T05:54:29;0.10;99.90
21306;DHT22;10812;51.838;5.838;2023-02-10T05:56:57;0.10;99.90
21306;DHT22;10812;51.838;5.838;2023-02-10T05:59:27;0.00;99.90
21306;DHT22;10812;51.838;5.838;2023-02-10T06:01:55;0.00;99.90
21306;DHT22;10812;51.838;5.838;2023-02-10T06:04:23;-0.10;99.90
21306;DHT22;10812;51.838;5.838;2023-02-10T06:06:51;-0.10;99.90
21306;DHT22;10812;51.838;5.838;2023-02-10T06:09:20;-0.10;99.90
21306;DHT22;10812;51.838;5.838;2023-02-10T06:11:49;-0.10;99.90
21306;DHT22;10812;51.838;5.838;2023-02-10T06:14:18;-0.10;99.90
21306;DHT22;10812;51.838;5.838;2023-02-10T06:16:48;0.00;99.90
21306;DHT22;10812;51.838;5.838;2023-02-10T06:19:16;0.00;99.90
21306;DHT22;10812;51.838;5.838;2023-02-10T06:21:46;0.10;99.90
21306;DHT22;10812;51.838;5.838;2023-02-10T06:24:14;0.10;99.90
21306;DHT22;10812;51.838;5.838;2023-02-10T06:26:42;0.20;99.90
21306;DHT22;10812;51.838;5.838;2023-02-10T06:29:11;0.10;99.90
21306;DHT22;10812;51.838;5.838;2023-02-10T06:31:39;0.20;99.90
21306;DHT22;10812;51.838;5.838;2023-02-10T06:34:08;0.20;99.90
21306;DHT22;10812;51.838;5.838;2023-02-10T06:36:36;0.20;99.90
21306;DHT22;10812;51.838;5.838;2023-02-10T06:39:05;0.30;99.90
21306;DHT22;10812;51.838;5.838;2023-02-10T06:41:33;0.40;99.90
21306;DHT22;10812;51.838;5.838;2023-02-10T06:44:01;0.40;99.90
21306;DHT22;10812;51.838;5.838;2023-02-10T06:46:30;0.40;99.90
21306;DHT22;10812;51.838;5.838;2023-02-10T06:48:58;0.40;99.90
21306;DHT22;10812;51.838;5.838;2023-02-10T06:51:29;0.40;99.90
21306;DHT22;10812;51.838;5.838;2023-02-10T06:53:57;0.40;99.90
21306;DHT22;10812;51.838;5.838;2023-02-10T06:56:25;0.50;99.90
21306;DHT22;10812;51.838;5.838;2023-02-10T06:58:53;0.50;99.90
21306;DHT22;10812;51.838;5.838;2023-02-10T07:01:22;0.50;99.90
21306;DHT22;10812;51.838;5.838;2023-02-10T07:03:50;0.50;99.90
21306;DHT22;10812;51.838;5.838;2023-02-10T07:06:18;0.50;99.90
21306;DHT22;10812;51.838;5.838;2023-02-10T07:08:47;0.60;99.90
21306;DHT22;10812;51.838;5.838;2023-02-10T07:11:17;0.50;99.90
21306;DHT22;10812;51.838;5.838;2023-02-10T07:13:45;0.60;99.90
21306;DHT22;10812;51.838;5.838;2023-02-10T07:16:14;0.60;99.90
21306;DHT22;10812;51.838;5.838;2023-02-10T07:18:43;0.60;99.90
21306;DHT22;10812;51.838;5.838;2023-02-10T07:21:11;0.70;99.90
21306;DHT22;10812;51.838;5.838;2023-02-10T07:23:39;0.70;99.90
21306;DHT22;10812;51.838;5.838;2023-02-10T07:26:10;0.70;99.90
21306;DHT22;10812;51.838;5.838;2023-02-10T07:28:38;0.70;99.90
21306;DHT22;10812;51.838;5.838;2023-02-10T07:31:07;0.70;99.90
21306;DHT22;10812;51.838;5.838;2023-02-10T07:33:35;0.80;99.90
21306;DHT22;10812;51.838;5.838;2023-02-10T07:36:05;0.80;99.90
21306;DHT22;10812;51.838;5.838;2023-02-10T07:38:33;0.80;99.90
21306;DHT22;10812;51.838;5.838;2023-02-10T07:41:02;0.90;99.90
21306;DHT22;10812;51.838;5.838;2023-02-10T07:43:32;1.00;99.90
21306;DHT22;10812;51.838;5.838;2023-02-10T07:46:00;1.00;99.90
21306;DHT22;10812;51.838;5.838;2023-02-10T07:48:29;1.10;99.90
21306;DHT22;10812;51.838;5.838;2023-02-10T07:50:57;1.10;99.90
21306;DHT22;10812;51.838;5.838;2023-02-10T07:53:25;1.20;99.90
21306;DHT22;10812;51.838;5.838;2023-02-10T07:55:53;1.20;99.90
21306;DHT22;10812;51.838;5.838;2023-02-10T07:58:21;1.30;99.90
21306;DHT22;10812;51.838;5.838;2023-02-10T08:00:50;1.30;99.90
21306;DHT22;10812;51.838;5.838;2023-02-10T08:03:19;1.40;99.90
21306;DHT22;10812;51.838;5.838;2023-02-10T08:05:47;1.40;99.90
21306;DHT22;10812;51.838;5.838;2023-02-10T08:08:16;1.30;99.90
21306;DHT22;10812;51.838;5.838;2023-02-10T08:10:44;1.40;99.90
21306;DHT22;10812;51.838;5.838;2023-02-10T08:13:12;1.50;99.90
21306;DHT22;10812;51.838;5.838;2023-02-10T08:15:40;1.50;99.90
21306;DHT22;10812;51.838;5.838;2023-02-10T08:18:10;1.60;99.90
21306;DHT22;10812;51.838;5.838;2023-02-10T08:20:38;1.60;99.90
21306;DHT22;10812;51.838;5.838;2023-02-10T08:23:07;1.60;99.90
21306;DHT22;10812;51.838;5.838;2023-02-10T08:25:40;1.60;99.90
21306;DHT22;10812;51.838;5.838;2023-02-10T08:28:08;1.60;99.90
21306;DHT22;10812;51.838;5.838;2023-02-10T08:30:37;1.60;99.90
21306;DHT22;10812;51.838;5.838;2023-02-10T08:33:05;1.70;99.90
21306;DHT22;10812;51.838;5.838;2023-02-10T08:35:36;1.60;99.90
21306;DHT22;10812;51.838;5.838;2023-02-10T08:38:05;1.70;99.90
21306;DHT22;10812;51.838;5.838;2023-02-10T08:40:35;1.70;99.90
21306;DHT22;10812;51.838;5.838;2023-02-10T08:43:04;1.80;99.90
21306;DHT22;10812;51.838;5.838;2023-02-10T08:45:32;1.80;99.90
21306;DHT22;10812;51.838;5.838;2023-02-10T08:48:00;1.80;99.90
21306;DHT22;10812;51.838;5.838;2023-02-10T08:50:29;1.90;99.90
21306;DHT22;10812;51.838;5.838;2023-02-10T08:52:58;2.00;99.90
21306;DHT22;10812;51.838;5.838;2023-02-10T08:55:26;2.10;99.90
21306;DHT22;10812;51.838;5.838;2023-02-10T08:57:54;2.20;99.90
21306;DHT22;10812;51.838;5.838;2023-02-10T09:00:23;2.20;99.90
21306;DHT22;10812;51.838;5.838;2023-02-10T09:02:51;2.30;99.90
21306;DHT22;10812;51.838;5.838;2023-02-10T09:05:19;2.40;99.90
21306;DHT22;10812;51.838;5.838;2023-02-10T09:07:47;2.50;99.90
21306;DHT22;10812;51.838;5.838;2023-02-10T09:10:17;2.50;99.90
21306;DHT22;10812;51.838;5.838;2023-02-10T09:12:45;2.50;99.90
21306;DHT22;10812;51.838;5.838;2023-02-10T09:15:14;2.60;99.90
21306;DHT22;10812;51.838;5.838;2023-02-10T09:17:43;2.60;99.90
21306;DHT22;10812;51.838;5.838;2023-02-10T09:20:11;2.60;99.90
21306;DHT22;10812;51.838;5.838;2023-02-10T09:22:40;2.60;99.90
21306;DHT22;10812;51.838;5.838;2023-02-10T09:25:08;2.70;99.90
21306;DHT22;10812;51.838;5.838;2023-02-10T09:27:37;2.80;99.90
21306;DHT22;10812;51.838;5.838;2023-02-10T09:30:06;2.80;99.90
21306;DHT22;10812;51.838;5.838;2023-02-10T09:32:34;3.00;99.90
21306;DHT22;10812;51.838;5.838;2023-02-10T09:35:02;3.00;99.90
21306;DHT22;10812;51.838;5.838;2023-02-10T09:37:31;3.10;99.90
21306;DHT22;10812;51.838;5.838;2023-02-10T09:39:59;3.20;99.90
21306;DHT22;10812;51.838;5.838;2023-02-10T09:42:40;3.20;99.90
21306;DHT22;10812;51.838;5.838;2023-02-10T09:45:16;3.40;99.90
21306;DHT22;10812;51.838;5.838;2023-02-10T09:47:48;3.50;99.90
21306;DHT22;10812;51.838;5.838;2023-02-10T09:50:30;3.60;99.90
21306;DHT22;10812;51.838;5.838;2023-02-10T09:53:08;3.60;99.90
21306;DHT22;10812;51.838;5.838;2023-02-10T09:55:39;3.80;99.90
21306;DHT22;10812;51.838;5.838;2023-02-10T09:58:18;3.80;99.90
21306;DHT22;10812;51.838;5.838;2023-02-10T10:00:52;3.80;99.90
21306;DHT22;10812;51.838;5.838;2023-02-10T10:03:27;3.90;99.90
21306;DHT22;10812;51.838;5.838;2023-02-10T10:06:04;3.90;99.90
21306;DHT22;10812;51.838;5.838;2023-02-10T10:08:40;3.90;99.90
21306;DHT22;10812;51.838;5.838;2023-02-10T10:11:23;3.90;99.90
21306;DHT22;10812;51.838;5.838;2023-02-10T10:13:54;4.00;99.90
21306;DHT22;10812;51.838;5.838;2023-02-10T10:16:51;4.20;99.90
21306;DHT22;10812;51.838;5.838;2023-02-10T10:19:31;4.40;99.90
21306;DHT22;10812;51.838;5.838;2023-02-10T10:22:13;4.70;99.90
21306;DHT22;10812;51.838;5.838;2023-02-10T10:25:00;4.80;99.90
21306;DHT22;10812;51.838;5.838;2023-02-10T10:27:36;4.70;99.90
21306;DHT22;10812;51.838;5.838;2023-02-10T10:30:17;4.50;99.90
21306;DHT22;10812;51.838;5.838;2023-02-10T10:32:48;4.60;99.90
21306;DHT22;10812;51.838;5.838;2023-02-10T10:35:24;4.50;99.90
21306;DHT22;10812;51.838;5.838;2023-02-10T10:37:54;4.70;99.90
21306;DHT22;10812;51.838;5.838;2023-02-10T10:40:25;4.80;99.90
21306;DHT22;10812;51.838;5.838;2023-02-10T10:42:57;4.80;99.90
21306;DHT22;10812;51.838;5.838;2023-02-10T10:45:31;4.90;99.90
21306;DHT22;10812;51.838;5.838;2023-02-10T10:48:05;5.00;99.90
21306;DHT22;10812;51.838;5.838;2023-02-10T10:50:34;5.10;99.90
21306;DHT22;10812;51.838;5.838;2023-02-10T10:53:13;5.10;99.90
21306;DHT22;10812;51.838;5.838;2023-02-10T10:55:43;5.20;99.90
21306;DHT22;10812;51.838;5.838;2023-02-10T10:58:23;5.30;99.90
21306;DHT22;10812;51.838;5.838;2023-02-10T11:00:55;5.40;99.90
21306;DHT22;10812;51.838;5.838;2023-02-10T11:03:24;5.50;99.90
21306;DHT22;10812;51.838;5.838;2023-02-10T11:06:04;5.60;99.90
21306;DHT22;10812;51.838;5.838;2023-02-10T11:08:35;5.60;99.90
21306;DHT22;10812;51.838;5.838;2023-02-10T11:11:05;5.60;99.90
21306;DHT22;10812;51.838;5.838;2023-02-10T11:13:39;5.60;99.90
21306;DHT22;10812;51.838;5.838;2023-02-10T11:16:12;5.70;99.90
21306;DHT22;10812;51.838;5.838;2023-02-10T11:18:51;5.70;99.90
21306;DHT22;10812;51.838;5.838;2023-02-10T11:21:19;5.80;99.90
21306;DHT22;10812;51.838;5.838;2023-02-10T11:23:49;5.90;99.90
21306;DHT22;10812;51.838;5.838;2023-02-10T11:26:19;6.00;99.90
21306;DHT22;10812;51.838;5.838;2023-02-10T11:28:48;6.00;99.90
21306;DHT22;10812;51.838;5.838;2023-02-10T11:31:27;6.10;99.90
21306;DHT22;10812;51.838;5.838;2023-02-10T11:34:00;6.10;99.90
21306;DHT22;10812;51.838;5.838;2023-02-10T11:36:33;6.20;99.90
21306;DHT22;10812;51.838;5.838;2023-02-10T11:39:16;6.20;99.90
21306;DHT22;10812;51.838;5.838;2023-02-10T11:41:45;6.30;99.90
21306;DHT22;10812;51.838;5.838;2023-02-10T11:44:23;6.40;99.90
21306;DHT22;10812;51.838;5.838;2023-02-10T11:46:59;6.50;99.90
21306;DHT22;10812;51.838;5.838;2023-02-10T11:49:30;6.60;99.90
21306;DHT22;10812;51.838;5.838;2023-02-10T11:52:00;6.60;99.90
21306;DHT22;10812;51.838;5.838;2023-02-10T11:54:29;6.70;99.90
21306;DHT22;10812;51.838;5.838;2023-02-10T11:57:25;6.80;99.90
21306;DHT22;10812;51.838;5.838;2023-02-10T12:00:19;6.90;99.90
21306;DHT22;10812;51.838;5.838;2023-02-10T12:03:12;7.10;99.90
21306;DHT22;10812;51.838;5.838;2023-02-10T12:05:48;7.00;99.90
21306;DHT22;10812;51.838;5.838;2023-02-10T12:08:24;7.10;99.90
21306;DHT22;10812;51.838;5.838;2023-02-10T12:10:57;7.20;99.90
21306;DHT22;10812;51.838;5.838;2023-02-10T12:13:32;7.20;99.90
21306;DHT22;10812;51.838;5.838;2023-02-10T12:16:10;7.30;99.90
21306;DHT22;10812;51.838;5.838;2023-02-10T12:18:51;7.40;99.90
21306;DHT22;10812;51.838;5.838;2023-02-10T12:21:41;7.50;99.90
21306;DHT22;10812;51.838;5.838;2023-02-10T12:24:35;7.50;99.90
21306;DHT22;10812;51.838;5.838;2023-02-10T12:27:11;7.50;99.90
21306;DHT22;10812;51.838;5.838;2023-02-10T12:29:48;7.50;99.90
21306;DHT22;10812;51.838;5.838;2023-02-10T12:32:29;7.50;99.90
21306;DHT22;10812;51.838;5.838;2023-02-10T12:35:24;7.60;99.90
21306;DHT22;10812;51.838;5.838;2023-02-10T12:38:05;7.60;99.90
21306;DHT22;10812;51.838;5.838;2023-02-10T12:40:43;7.60;99.90
21306;DHT22;10812;51.838;5.838;2023-02-10T12:43:40;7.60;99.90
21306;DHT22;10812;51.838;5.838;2023-02-10T12:46:16;7.70;99.90
21306;DHT22;10812;51.838;5.838;2023-02-10T12:49:09;7.70;99.90
21306;DHT22;10812;51.838;5.838;2023-02-10T12:51:52;7.70;99.90
21306;DHT22;10812;51.838;5.838;2023-02-10T12:54:25;7.80;99.90
21306;DHT22;10812;51.838;5.838;2023-02-10T12:57:12;7.80;99.90
21306;DHT22;10812;51.838;5.838;2023-02-10T12:59:52;7.90;99.90
21306;DHT22;10812;51.838;5.838;2023-02-10T13:02:27;8.00;99.90
21306;DHT22;10812;51.838;5.838;2023-02-10T13:04:59;8.00;99.90
21306;DHT22;10812;51.838;5.838;2023-02-10T13:07:37;8.10;99.90
21306;DHT22;10812;51.838;5.838;2023-02-10T13:10:17;8.10;99.90
21306;DHT22;10812;51.838;5.838;2023-02-10T13:12:49;8.10;99.90
21306;DHT22;10812;51.838;5.838;2023-02-10T13:15:23;8.20;99.90
21306;DHT22;10812;51.838;5.838;2023-02-10T13:17:52;8.10;99.90
21306;DHT22;10812;51.838;5.838;2023-02-10T13:20:40;8.20;99.90
21306;DHT22;10812;51.838;5.838;2023-02-10T13:23:17;8.20;99.90
21306;DHT22;10812;51.838;5.838;2023-02-10T13:25:58;8.30;99.90
21306;DHT22;10812;51.838;5.838;2023-02-10T13:28:36;8.30;99.90
21306;DHT22;10812;51.838;5.838;2023-02-10T13:31:21;8.50;99.90
21306;DHT22;10812;51.838;5.838;2023-02-10T13:34:00;8.50;99.90
21306;DHT22;10812;51.838;5.838;2023-02-10T13:36:33;8.50;99.90
21306;DHT22;10812;51.838;5.838;2023-02-10T13:39:06;8.40;99.90
21306;DHT22;10812;51.838;5.838;2023-02-10T13:41:42;8.30;99.90
21306;DHT22;10812;51.838;5.838;2023-02-10T13:44:23;8.30;99.90
21306;DHT22;10812;51.838;5.838;2023-02-10T13:47:12;8.30;99.90
21306;DHT22;10812;51.838;5.838;2023-02-10T13:49:49;8.30;99.90
21306;DHT22;10812;51.838;5.838;2023-02-10T13:52:21;8.30;99.90
21306;DHT22;10812;51.838;5.838;2023-02-10T13:54:57;8.30;99.90
21306;DHT22;10812;51.838;5.838;2023-02-10T13:57:29;8.30;99.90
21306;DHT22;10812;51.838;5.838;2023-02-10T14:00:14;8.30;99.90
21306;DHT22;10812;51.838;5.838;2023-02-10T14:02:43;8.40;99.90
21306;DHT22;10812;51.838;5.838;2023-02-10T14:05:24;8.50;99.90
21306;DHT22;10812;51.838;5.838;2023-02-10T14:07:53;8.60;99.90
21306;DHT22;10812;51.838;5.838;2023-02-10T14:10:31;8.70;99.90
21306;DHT22;10812;51.838;5.838;2023-02-10T14:13:02;8.60;99.90
21306;DHT22;10812;51.838;5.838;2023-02-10T14:15:33;8.50;99.90
21306;DHT22;10812;51.838;5.838;2023-02-10T14:18:05;8.30;99.90
21306;DHT22;10812;51.838;5.838;2023-02-10T14:20:37;8.20;99.90
21306;DHT22;10812;51.838;5.838;2023-02-10T14:23:06;8.10;99.90
21306;DHT22;10812;51.838;5.838;2023-02-10T14:25:38;8.00;99.90
21306;DHT22;10812;51.838;5.838;2023-02-10T14:28:20;7.90;99.90
21306;DHT22;10812;51.838;5.838;2023-02-10T14:30:52;7.90;99.90
21306;DHT22;10812;51.838;5.838;2023-02-10T14:33:26;7.80;99.90
21306;DHT22;10812;51.838;5.838;2023-02-10T14:35:56;7.70;99.90
21306;DHT22;10812;51.838;5.838;2023-02-10T14:38:26;7.70;99.90
21306;DHT22;10812;51.838;5.838;2023-02-10T14:40:58;7.70;99.90
21306;DHT22;10812;51.838;5.838;2023-02-10T14:43:44;7.70;99.90
21306;DHT22;10812;51.838;5.838;2023-02-10T14:46:20;7.70;99.90
21306;DHT22;10812;51.838;5.838;2023-02-10T14:48:48;7.80;99.90
21306;DHT22;10812;51.838;5.838;2023-02-10T14:51:20;7.90;99.90
21306;DHT22;10812;51.838;5.838;2023-02-10T14:53:48;7.90;99.90
21306;DHT22;10812;51.838;5.838;2023-02-10T14:56:26;7.90;99.90
21306;DHT22;10812;51.838;5.838;2023-02-10T14:58:55;8.00;99.90
21306;DHT22;10812;51.838;5.838;2023-02-10T15:01:25;8.00;99.90
21306;DHT22;10812;51.838;5.838;2023-02-10T15:03:55;8.00;99.90
21306;DHT22;10812;51.838;5.838;2023-02-10T15:06:26;8.00;99.90
21306;DHT22;10812;51.838;5.838;2023-02-10T15:08:57;7.90;99.90
21306;DHT22;10812;51.838;5.838;2023-02-10T15:11:31;8.00;99.90
21306;DHT22;10812;51.838;5.838;2023-02-10T15:14:20;8.10;99.90
21306;DHT22;10812;51.838;5.838;2023-02-10T15:16:49;8.00;99.90
21306;DHT22;10812;51.838;5.838;2023-02-10T15:19:18;7.90;99.90
21306;DHT22;10812;51.838;5.838;2023-02-10T15:21:47;7.80;99.90
21306;DHT22;10812;51.838;5.838;2023-02-10T15:24:26;7.70;99.90
21306;DHT22;10812;51.838;5.838;2023-02-10T15:26:56;7.60;99.90
21306;DHT22;10812;51.838;5.838;2023-02-10T15:29:36;7.50;99.90
21306;DHT22;10812;51.838;5.838;2023-02-10T15:32:04;7.30;99.90
21306;DHT22;10812;51.838;5.838;2023-02-10T15:34:34;7.30;99.90
21306;DHT22;10812;51.838;5.838;2023-02-10T15:37:04;7.20;99.90
21306;DHT22;10812;51.838;5.838;2023-02-10T15:39:35;7.10;99.90
21306;DHT22;10812;51.838;5.838;2023-02-10T15:42:18;7.20;99.90
21306;DHT22;10812;51.838;5.838;2023-02-10T15:44:58;7.00;99.90
21306;DHT22;10812;51.838;5.838;2023-02-10T15:47:37;7.00;99.90
21306;DHT22;10812;51.838;5.838;2023-02-10T15:50:10;6.90;99.90
21306;DHT22;10812;51.838;5.838;2023-02-10T15:52:40;6.80;99.90
21306;DHT22;10812;51.838;5.838;2023-02-10T15:55:18;6.70;99.90
21306;DHT22;10812;51.838;5.838;2023-02-10T15:57:48;6.60;99.90
21306;DHT22;10812;51.838;5.838;2023-02-10T16:00:20;6.50;99.90
21306;DHT22;10812;51.838;5.838;2023-02-10T16:02:48;6.60;99.90
21306;DHT22;10812;51.838;5.838;2023-02-10T16:05:17;6.60;99.90
21306;DHT22;10812;51.838;5.838;2023-02-10T16:07:45;6.70;99.90
21306;DHT22;10812;51.838;5.838;2023-02-10T16:10:17;6.80;99.90
21306;DHT22;10812;51.838;5.838;2023-02-10T16:12:45;6.80;99.90
21306;DHT22;10812;51.838;5.838;2023-02-10T16:15:16;6.90;99.90
21306;DHT22;10812;51.838;5.838;2023-02-10T16:17:46;6.80;99.90
21306;DHT22;10812;51.838;5.838;2023-02-10T16:20:17;6.80;99.90
21306;DHT22;10812;51.838;5.838;2023-02-10T16:22:47;6.80;99.90
21306;DHT22;10812;51.838;5.838;2023-02-10T16:25:16;6.70;99.90
21306;DHT22;10812;51.838;5.838;2023-02-10T16:27:45;6.70;99.90
21306;DHT22;10812;51.838;5.838;2023-02-10T16:30:17;6.70;99.90
21306;DHT22;10812;51.838;5.838;2023-02-10T16:32:46;6.70;99.90
21306;DHT22;10812;51.838;5.838;2023-02-10T16:35:14;6.60;99.90
21306;DHT22;10812;51.838;5.838;2023-02-10T16:37:43;6.60;99.90
21306;DHT22;10812;51.838;5.838;2023-02-10T16:40:15;6.60;99.90